sensor_id;sensor_type;location;lat;lon;timestamp;P1;durP1;ratioP1;P2;durP2;ratioP2
7703;SDS011;3894;49.700;10.770;2022-10-13T00:00:43;165.70;;;155.02;;
7703;SDS011;3894;49.700;10.770;2022-10-13T00:03:10;158.38;;;145.07;;
7703;SDS011;3894;49.700;10.770;2022-10-13T00:05:42;139.63;;;127.00;;
7703;SDS011;3894;49.700;10.770;2022-10-13T00:08:10;144.48;;;130.73;;
7703;SDS011;3894;49.700;10.770;2022-10-13T00:10:37;142.18;;;124.28;;
7703;SDS011;3894;49.700;10.770;2022-10-13T00:13:04;153.07;;;136.85;;
7703;SDS011;3894;49.700;10.770;2022-10-13T00:15:30;119.47;;;104.43;;
7703;SDS011;3894;49.700;10.770;2022-10-13T00:17:56;121.28;;;101.88;;
7703;SDS011;3894;49.700;10.770;2022-10-13T00:20:22;94.03;;;79.75;;
7703;SDS011;3894;49.700;10.770;2022-10-13T00:22:47;161.88;;;100.47;;
7703;SDS011;3894;49.700;10.770;2022-10-13T00:25:13;161.30;;;71.03;;
7703;SDS011;3894;49.700;10.770;2022-10-13T00:27:38;224.18;;;74.03;;
7703;SDS011;3894;49.700;10.770;2022-10-13T00:30:04;140.07;;;59.67;;
7703;SDS011;3894;49.700;10.770;2022-10-13T00:32:30;178.45;;;70.60;;
7703;SDS011;3894;49.700;10.770;2022-10-13T00:34:56;244.48;;;95.72;;
7703;SDS011;3894;49.700;10.770;2022-10-13T00:37:24;123.10;;;74.78;;
7703;SDS011;3894;49.700;10.770;2022-10-13T00:39:50;109.70;;;83.13;;
7703;SDS011;3894;49.700;10.770;2022-10-13T00:42:15;120.70;;;89.03;;
7703;SDS011;3894;49.700;10.770;2022-10-13T00:47:25;109.63;;;57.83;;
7703;SDS011;3894;49.700;10.770;2022-10-13T00:50:05;118.78;;;65.35;;
7703;SDS011;3894;49.700;10.770;2022-10-13T00:52:34;115.38;;;81.28;;
7703;SDS011;3894;49.700;10.770;2022-10-13T00:55:02;106.22;;;78.28;;
7703;SDS011;3894;49.700;10.770;2022-10-13T00:57:29;135.23;;;67.28;;
7703;SDS011;3894;49.700;10.770;2022-10-13T00:59:56;114.15;;;69.38;;
7703;SDS011;3894;49.700;10.770;2022-10-13T01:02:22;94.40;;;72.75;;
7703;SDS011;3894;49.700;10.770;2022-10-13T01:04:55;79.60;;;59.55;;
7703;SDS011;3894;49.700;10.770;2022-10-13T01:07:22;83.03;;;75.43;;
7703;SDS011;3894;49.700;10.770;2022-10-13T01:09:48;90.78;;;77.90;;
7703;SDS011;3894;49.700;10.770;2022-10-13T01:12:25;56.83;;;51.05;;
7703;SDS011;3894;49.700;10.770;2022-10-13T01:15:02;54.42;;;49.03;;
7703;SDS011;3894;49.700;10.770;2022-10-13T01:31:53;232.70;;;220.60;;
7703;SDS011;3894;49.700;10.770;2022-10-13T01:39:57;220.50;;;210.00;;
7703;SDS011;3894;49.700;10.770;2022-10-13T01:45:18;240.35;;;229.13;;
7703;SDS011;3894;49.700;10.770;2022-10-13T01:47:48;241.95;;;230.40;;
7703;SDS011;3894;49.700;10.770;2022-10-13T01:50:15;230.48;;;219.65;;
7703;SDS011;3894;49.700;10.770;2022-10-13T01:52:43;235.80;;;224.90;;
7703;SDS011;3894;49.700;10.770;2022-10-13T01:55:10;225.60;;;214.95;;
7703;SDS011;3894;49.700;10.770;2022-10-13T01:57:38;207.43;;;197.45;;
7703;SDS011;3894;49.700;10.770;2022-10-13T02:00:10;216.10;;;205.82;;
7703;SDS011;3894;49.700;10.770;2022-10-13T02:11:07;244.32;;;230.35;;
7703;SDS011;3894;49.700;10.770;2022-10-13T02:13:46;235.65;;;224.65;;
7703;SDS011;3894;49.700;10.770;2022-10-13T02:16:20;228.48;;;217.50;;
7703;SDS011;3894;49.700;10.770;2022-10-13T02:18:47;218.73;;;208.20;;
7703;SDS011;3894;49.700;10.770;2022-10-13T02:21:14;193.57;;;184.05;;
7703;SDS011;3894;49.700;10.770;2022-10-13T02:23:41;202.43;;;192.88;;
7703;SDS011;3894;49.700;10.770;2022-10-13T02:26:07;223.27;;;212.60;;
7703;SDS011;3894;49.700;10.770;2022-10-13T02:28:35;211.93;;;201.65;;
7703;SDS011;3894;49.700;10.770;2022-10-13T02:31:01;210.77;;;200.68;;
7703;SDS011;3894;49.700;10.770;2022-10-13T02:33:27;213.93;;;203.80;;
7703;SDS011;3894;49.700;10.770;2022-10-13T02:35:53;228.73;;;217.68;;
7703;SDS011;3894;49.700;10.770;2022-10-13T02:38:19;229.75;;;218.35;;
7703;SDS011;3894;49.700;10.770;2022-10-13T02:40:44;245.85;;;234.50;;
7703;SDS011;3894;49.700;10.770;2022-10-13T02:43:10;255.05;;;242.70;;
7703;SDS011;3894;49.700;10.770;2022-10-13T02:45:35;240.23;;;228.68;;
7703;SDS011;3894;49.700;10.770;2022-10-13T02:48:01;227.70;;;216.52;;
7703;SDS011;3894;49.700;10.770;2022-10-13T02:50:26;234.48;;;223.02;;
7703;SDS011;3894;49.700;10.770;2022-10-13T02:52:52;202.68;;;189.07;;
7703;SDS011;3894;49.700;10.770;2022-10-13T02:55:18;211.75;;;200.70;;
7703;SDS011;3894;49.700;10.770;2022-10-13T02:57:43;210.68;;;200.30;;
7703;SDS011;3894;49.700;10.770;2022-10-13T03:00:09;220.25;;;208.80;;
7703;SDS011;3894;49.700;10.770;2022-10-13T03:02:35;219.43;;;208.57;;
7703;SDS011;3894;49.700;10.770;2022-10-13T03:05:01;207.65;;;195.27;;
7703;SDS011;3894;49.700;10.770;2022-10-13T03:07:27;190.27;;;180.18;;
7703;SDS011;3894;49.700;10.770;2022-10-13T03:09:52;209.18;;;197.95;;
7703;SDS011;3894;49.700;10.770;2022-10-13T03:12:18;204.02;;;193.75;;
7703;SDS011;3894;49.700;10.770;2022-10-13T03:14:43;182.65;;;171.65;;
7703;SDS011;3894;49.700;10.770;2022-10-13T03:17:09;187.77;;;178.32;;
7703;SDS011;3894;49.700;10.770;2022-10-13T03:19:35;211.43;;;199.13;;
7703;SDS011;3894;49.700;10.770;2022-10-13T03:22:00;170.80;;;160.32;;
7703;SDS011;3894;49.700;10.770;2022-10-13T03:24:26;200.65;;;190.52;;
7703;SDS011;3894;49.700;10.770;2022-10-13T03:26:51;142.88;;;135.00;;
7703;SDS011;3894;49.700;10.770;2022-10-13T03:29:17;110.25;;;103.65;;
7703;SDS011;3894;49.700;10.770;2022-10-13T03:31:43;132.45;;;125.25;;
7703;SDS011;3894;49.700;10.770;2022-10-13T03:34:09;141.98;;;134.05;;
7703;SDS011;3894;49.700;10.770;2022-10-13T03:36:35;157.60;;;149.50;;
7703;SDS011;3894;49.700;10.770;2022-10-13T03:39:01;153.95;;;145.75;;
7703;SDS011;3894;49.700;10.770;2022-10-13T03:41:27;133.63;;;126.22;;
7703;SDS011;3894;49.700;10.770;2022-10-13T03:43:52;145.70;;;138.13;;
7703;SDS011;3894;49.700;10.770;2022-10-13T03:46:18;138.57;;;130.77;;
7703;SDS011;3894;49.700;10.770;2022-10-13T03:48:44;139.70;;;131.93;;
7703;SDS011;3894;49.700;10.770;2022-10-13T03:51:12;128.18;;;121.03;;
7703;SDS011;3894;49.700;10.770;2022-10-13T03:53:40;155.95;;;147.13;;
7703;SDS011;3894;49.700;10.770;2022-10-13T03:56:06;172.27;;;163.30;;
7703;SDS011;3894;49.700;10.770;2022-10-13T03:58:32;127.00;;;119.57;;
7703;SDS011;3894;49.700;10.770;2022-10-13T04:01:01;131.77;;;124.38;;
7703;SDS011;3894;49.700;10.770;2022-10-13T04:03:32;121.93;;;114.97;;
7703;SDS011;3894;49.700;10.770;2022-10-13T04:05:58;134.05;;;126.70;;
7703;SDS011;3894;49.700;10.770;2022-10-13T04:08:25;164.25;;;155.82;;
7703;SDS011;3894;49.700;10.770;2022-10-13T04:11:02;176.82;;;167.90;;
7703;SDS011;3894;49.700;10.770;2022-10-13T04:13:30;159.18;;;150.52;;
7703;SDS011;3894;49.700;10.770;2022-10-13T04:16:00;159.48;;;150.88;;
7703;SDS011;3894;49.700;10.770;2022-10-13T04:18:33;164.05;;;155.60;;
7703;SDS011;3894;49.700;10.770;2022-10-13T04:20:59;160.80;;;152.30;;
7703;SDS011;3894;49.700;10.770;2022-10-13T04:23:25;165.63;;;157.27;;
7703;SDS011;3894;49.700;10.770;2022-10-13T04:25:51;168.20;;;159.77;;
7703;SDS011;3894;49.700;10.770;2022-10-13T04:28:16;167.80;;;159.48;;
7703;SDS011;3894;49.700;10.770;2022-10-13T04:30:42;172.95;;;164.43;;
7703;SDS011;3894;49.700;10.770;2022-10-13T04:33:08;159.38;;;151.25;;
7703;SDS011;3894;49.700;10.770;2022-10-13T04:35:38;126.88;;;120.10;;
7703;SDS011;3894;49.700;10.770;2022-10-13T04:38:05;138.00;;;131.20;;
7703;SDS011;3894;49.700;10.770;2022-10-13T04:40:30;137.38;;;130.20;;
7703;SDS011;3894;49.700;10.770;2022-10-13T04:42:56;117.88;;;111.75;;
7703;SDS011;3894;49.700;10.770;2022-10-13T04:45:22;140.60;;;133.45;;
7703;SDS011;3894;49.700;10.770;2022-10-13T04:47:48;136.95;;;129.85;;
7703;SDS011;3894;49.700;10.770;2022-10-13T04:50:13;125.68;;;118.78;;
7703;SDS011;3894;49.700;10.770;2022-10-13T04:52:39;133.25;;;126.28;;
7703;SDS011;3894;49.700;10.770;2022-10-13T04:55:05;116.32;;;110.13;;
7703;SDS011;3894;49.700;10.770;2022-10-13T04:57:31;128.75;;;122.18;;
7703;SDS011;3894;49.700;10.770;2022-10-13T04:59:56;108.30;;;102.10;;
7703;SDS011;3894;49.700;10.770;2022-10-13T05:02:22;103.93;;;98.03;;
7703;SDS011;3894;49.700;10.770;2022-10-13T05:04:47;121.82;;;115.15;;
7703;SDS011;3894;49.700;10.770;2022-10-13T05:07:13;103.22;;;97.53;;
7703;SDS011;3894;49.700;10.770;2022-10-13T05:09:38;104.15;;;98.25;;
7703;SDS011;3894;49.700;10.770;2022-10-13T05:12:04;118.15;;;111.63;;
7703;SDS011;3894;49.700;10.770;2022-10-13T05:14:30;123.72;;;117.18;;
7703;SDS011;3894;49.700;10.770;2022-10-13T05:16:57;120.38;;;114.13;;
7703;SDS011;3894;49.700;10.770;2022-10-13T05:19:22;117.45;;;111.25;;
7703;SDS011;3894;49.700;10.770;2022-10-13T05:21:48;98.18;;;92.90;;
7703;SDS011;3894;49.700;10.770;2022-10-13T05:24:14;99.50;;;93.97;;
7703;SDS011;3894;49.700;10.770;2022-10-13T05:26:40;99.22;;;93.75;;
7703;SDS011;3894;49.700;10.770;2022-10-13T05:29:06;94.88;;;89.53;;
7703;SDS011;3894;49.700;10.770;2022-10-13T05:31:32;89.60;;;84.40;;
7703;SDS011;3894;49.700;10.770;2022-10-13T05:33:58;99.03;;;93.00;;
7703;SDS011;3894;49.700;10.770;2022-10-13T05:36:32;128.57;;;116.22;;
7703;SDS011;3894;49.700;10.770;2022-10-13T05:39:00;90.82;;;85.07;;
7703;SDS011;3894;49.700;10.770;2022-10-13T05:41:28;92.60;;;86.97;;
7703;SDS011;3894;49.700;10.770;2022-10-13T05:43:58;107.10;;;100.90;;
7703;SDS011;3894;49.700;10.770;2022-10-13T05:46:25;88.28;;;83.10;;
7703;SDS011;3894;49.700;10.770;2022-10-13T05:48:51;83.88;;;78.93;;
7703;SDS011;3894;49.700;10.770;2022-10-13T05:51:39;92.72;;;86.95;;
7703;SDS011;3894;49.700;10.770;2022-10-13T05:54:18;91.00;;;85.35;;
7703;SDS011;3894;49.700;10.770;2022-10-13T05:56:53;109.22;;;102.88;;
7703;SDS011;3894;49.700;10.770;2022-10-13T05:59:25;98.28;;;92.72;;
7703;SDS011;3894;49.700;10.770;2022-10-13T06:01:53;92.10;;;86.53;;
7703;SDS011;3894;49.700;10.770;2022-10-13T06:04:20;76.18;;;71.50;;
7703;SDS011;3894;49.700;10.770;2022-10-13T06:06:51;79.47;;;74.50;;
7703;SDS011;3894;49.700;10.770;2022-10-13T06:09:16;89.65;;;84.32;;
7703;SDS011;3894;49.700;10.770;2022-10-13T06:11:42;88.47;;;82.97;;
7703;SDS011;3894;49.700;10.770;2022-10-13T06:14:07;77.75;;;72.70;;
7703;SDS011;3894;49.700;10.770;2022-10-13T06:16:34;99.25;;;93.90;;
7703;SDS011;3894;49.700;10.770;2022-10-13T06:19:03;83.00;;;77.95;;
7703;SDS011;3894;49.700;10.770;2022-10-13T06:21:29;93.93;;;88.72;;
7703;SDS011;3894;49.700;10.770;2022-10-13T06:23:55;91.43;;;86.18;;
7703;SDS011;3894;49.700;10.770;2022-10-13T06:26:20;78.15;;;73.25;;
7703;SDS011;3894;49.700;10.770;2022-10-13T06:28:46;85.32;;;80.00;;
7703;SDS011;3894;49.700;10.770;2022-10-13T06:31:11;93.32;;;88.05;;
7703;SDS011;3894;49.700;10.770;2022-10-13T06:33:38;96.90;;;91.45;;
7703;SDS011;3894;49.700;10.770;2022-10-13T06:36:04;94.65;;;89.45;;
7703;SDS011;3894;49.700;10.770;2022-10-13T06:38:31;106.85;;;100.93;;
7703;SDS011;3894;49.700;10.770;2022-10-13T06:41:00;90.18;;;84.88;;
7703;SDS011;3894;49.700;10.770;2022-10-13T06:43:26;90.38;;;84.93;;
7703;SDS011;3894;49.700;10.770;2022-10-13T06:45:52;87.30;;;81.75;;
7703;SDS011;3894;49.700;10.770;2022-10-13T06:48:21;88.38;;;83.00;;
7703;SDS011;3894;49.700;10.770;2022-10-13T06:50:46;85.25;;;79.95;;
7703;SDS011;3894;49.700;10.770;2022-10-13T06:53:12;85.50;;;80.20;;
7703;SDS011;3894;49.700;10.770;2022-10-13T06:55:37;84.88;;;79.18;;
7703;SDS011;3894;49.700;10.770;2022-10-13T06:58:03;85.78;;;80.45;;
7703;SDS011;3894;49.700;10.770;2022-10-13T07:00:29;75.53;;;70.47;;
7703;SDS011;3894;49.700;10.770;2022-10-13T07:02:54;84.97;;;79.70;;
7703;SDS011;3894;49.700;10.770;2022-10-13T07:05:20;97.38;;;91.25;;
7703;SDS011;3894;49.700;10.770;2022-10-13T07:07:45;93.22;;;87.30;;
7703;SDS011;3894;49.700;10.770;2022-10-13T07:10:11;98.85;;;92.90;;
7703;SDS011;3894;49.700;10.770;2022-10-13T07:12:37;116.60;;;109.32;;
7703;SDS011;3894;49.700;10.770;2022-10-13T07:15:02;110.28;;;103.78;;
7703;SDS011;3894;49.700;10.770;2022-10-13T07:17:28;98.15;;;92.43;;
7703;SDS011;3894;49.700;10.770;2022-10-13T07:19:54;96.30;;;90.43;;
7703;SDS011;3894;49.700;10.770;2022-10-13T07:22:19;96.93;;;91.10;;
7703;SDS011;3894;49.700;10.770;2022-10-13T07:24:45;106.38;;;100.18;;
7703;SDS011;3894;49.700;10.770;2022-10-13T07:27:10;90.00;;;84.18;;
7703;SDS011;3894;49.700;10.770;2022-10-13T07:29:36;85.55;;;80.47;;
7703;SDS011;3894;49.700;10.770;2022-10-13T07:32:01;74.88;;;70.35;;
7703;SDS011;3894;49.700;10.770;2022-10-13T07:34:27;78.10;;;73.18;;
7703;SDS011;3894;49.700;10.770;2022-10-13T07:36:53;77.97;;;72.95;;
7703;SDS011;3894;49.700;10.770;2022-10-13T07:39:18;76.38;;;71.70;;
7703;SDS011;3894;49.700;10.770;2022-10-13T07:41:44;86.35;;;81.45;;
7703;SDS011;3894;49.700;10.770;2022-10-13T07:44:09;93.57;;;88.18;;
7703;SDS011;3894;49.700;10.770;2022-10-13T07:46:35;87.38;;;82.32;;
7703;SDS011;3894;49.700;10.770;2022-10-13T07:49:00;81.57;;;76.75;;
7703;SDS011;3894;49.700;10.770;2022-10-13T07:51:26;81.10;;;76.18;;
7703;SDS011;3894;49.700;10.770;2022-10-13T07:53:51;76.72;;;71.85;;
7703;SDS011;3894;49.700;10.770;2022-10-13T07:56:17;90.55;;;85.22;;
7703;SDS011;3894;49.700;10.770;2022-10-13T07:58:44;86.70;;;81.97;;
7703;SDS011;3894;49.700;10.770;2022-10-13T08:01:10;80.47;;;75.88;;
7703;SDS011;3894;49.700;10.770;2022-10-13T08:03:37;75.25;;;70.95;;
7703;SDS011;3894;49.700;10.770;2022-10-13T08:06:03;72.90;;;68.20;;
7703;SDS011;3894;49.700;10.770;2022-10-13T08:08:30;68.53;;;64.18;;
7703;SDS011;3894;49.700;10.770;2022-10-13T08:11:00;69.18;;;64.88;;
7703;SDS011;3894;49.700;10.770;2022-10-13T08:13:27;73.50;;;69.10;;
7703;SDS011;3894;49.700;10.770;2022-10-13T08:15:52;81.50;;;76.63;;
7703;SDS011;3894;49.700;10.770;2022-10-13T08:18:18;71.07;;;66.63;;
7703;SDS011;3894;49.700;10.770;2022-10-13T08:20:44;78.00;;;73.45;;
7703;SDS011;3894;49.700;10.770;2022-10-13T08:23:13;69.05;;;64.60;;
7703;SDS011;3894;49.700;10.770;2022-10-13T08:25:39;60.88;;;56.63;;
7703;SDS011;3894;49.700;10.770;2022-10-13T08:28:10;73.35;;;69.05;;
7703;SDS011;3894;49.700;10.770;2022-10-13T08:30:52;68.40;;;64.00;;
7703;SDS011;3894;49.700;10.770;2022-10-13T08:33:21;69.40;;;65.20;;
7703;SDS011;3894;49.700;10.770;2022-10-13T08:35:51;69.10;;;64.85;;
7703;SDS011;3894;49.700;10.770;2022-10-13T08:38:17;57.45;;;53.33;;
7703;SDS011;3894;49.700;10.770;2022-10-13T08:40:47;68.97;;;64.72;;
7703;SDS011;3894;49.700;10.770;2022-10-13T08:43:14;68.70;;;64.32;;
7703;SDS011;3894;49.700;10.770;2022-10-13T08:45:45;69.60;;;65.25;;
7703;SDS011;3894;49.700;10.770;2022-10-13T08:50:42;66.35;;;61.70;;
7703;SDS011;3894;49.700;10.770;2022-10-13T08:53:17;61.65;;;57.47;;
7703;SDS011;3894;49.700;10.770;2022-10-13T08:55:53;66.78;;;62.20;;
7703;SDS011;3894;49.700;10.770;2022-10-13T08:58:40;133.20;;;125.97;;
7703;SDS011;3894;49.700;10.770;2022-10-13T09:03:45;157.10;;;149.38;;
7703;SDS011;3894;49.700;10.770;2022-10-13T09:08:56;166.13;;;157.88;;
7703;SDS011;3894;49.700;10.770;2022-10-13T09:11:25;165.57;;;157.63;;
7703;SDS011;3894;49.700;10.770;2022-10-13T09:13:53;179.52;;;170.55;;
7703;SDS011;3894;49.700;10.770;2022-10-13T09:16:37;195.23;;;185.55;;
7703;SDS011;3894;49.700;10.770;2022-10-13T09:19:11;181.15;;;171.93;;
7703;SDS011;3894;49.700;10.770;2022-10-13T09:24:22;222.95;;;211.75;;
7703;SDS011;3894;49.700;10.770;2022-10-13T09:26:50;178.68;;;168.38;;
7703;SDS011;3894;49.700;10.770;2022-10-13T09:29:30;224.77;;;204.32;;
7703;SDS011;3894;49.700;10.770;2022-10-13T09:32:15;204.20;;;187.85;;
7703;SDS011;3894;49.700;10.770;2022-10-13T09:34:43;178.77;;;168.30;;
7703;SDS011;3894;49.700;10.770;2022-10-13T09:37:15;238.68;;;224.98;;
7703;SDS011;3894;49.700;10.770;2022-10-13T09:39:44;223.80;;;211.82;;
7703;SDS011;3894;49.700;10.770;2022-10-13T09:42:28;172.63;;;162.55;;
7703;SDS011;3894;49.700;10.770;2022-10-13T09:45:00;206.00;;;195.75;;
7703;SDS011;3894;49.700;10.770;2022-10-13T09:47:36;211.82;;;200.63;;
7703;SDS011;3894;49.700;10.770;2022-10-13T09:50:04;211.27;;;200.45;;
7703;SDS011;3894;49.700;10.770;2022-10-13T09:52:41;225.75;;;214.45;;
7703;SDS011;3894;49.700;10.770;2022-10-13T09:57:55;131.43;;;123.70;;
7703;SDS011;3894;49.700;10.770;2022-10-13T10:00:26;157.77;;;148.60;;
7703;SDS011;3894;49.700;10.770;2022-10-13T10:05:26;247.57;;;235.50;;
7703;SDS011;3894;49.700;10.770;2022-10-13T10:08:16;184.68;;;174.90;;
7703;SDS011;3894;49.700;10.770;2022-10-13T10:10:43;245.15;;;233.02;;
7703;SDS011;3894;49.700;10.770;2022-10-13T10:13:10;58.72;;;53.78;;
7703;SDS011;3894;49.700;10.770;2022-10-13T10:15:42;254.20;;;241.95;;
7703;SDS011;3894;49.700;10.770;2022-10-13T10:24:18;228.10;;;216.73;;
7703;SDS011;3894;49.700;10.770;2022-10-13T10:26:58;222.10;;;211.10;;
7703;SDS011;3894;49.700;10.770;2022-10-13T10:29:40;238.63;;;227.20;;
7703;SDS011;3894;49.700;10.770;2022-10-13T10:35:19;210.85;;;200.57;;
7703;SDS011;3894;49.700;10.770;2022-10-13T10:46:22;227.68;;;216.68;;
7703;SDS011;3894;49.700;10.770;2022-10-13T10:48:53;234.15;;;223.45;;
7703;SDS011;3894;49.700;10.770;2022-10-13T10:51:24;220.85;;;210.40;;
7703;SDS011;3894;49.700;10.770;2022-10-13T11:02:45;164.13;;;155.98;;
7703;SDS011;3894;49.700;10.770;2022-10-13T11:05:19;187.93;;;178.57;;
7703;SDS011;3894;49.700;10.770;2022-10-13T11:21:22;181.27;;;172.32;;
7703;SDS011;3894;49.700;10.770;2022-10-13T11:23:48;186.80;;;178.15;;
7703;SDS011;3894;49.700;10.770;2022-10-13T11:28:49;171.70;;;163.52;;
7703;SDS011;3894;49.700;10.770;2022-10-13T11:31:22;190.93;;;182.02;;
7703;SDS011;3894;49.700;10.770;2022-10-13T11:33:56;188.25;;;179.88;;
7703;SDS011;3894;49.700;10.770;2022-10-13T11:39:42;155.60;;;148.13;;
7703;SDS011;3894;49.700;10.770;2022-10-13T11:42:04;154.65;;;146.98;;
7703;SDS011;3894;49.700;10.770;2022-10-13T11:52:53;130.30;;;123.78;;
7703;SDS011;3894;49.700;10.770;2022-10-13T11:55:47;164.35;;;156.65;;
7703;SDS011;3894;49.700;10.770;2022-10-13T12:03:26;151.18;;;143.68;;
7703;SDS011;3894;49.700;10.770;2022-10-13T12:06:04;133.60;;;127.07;;
7703;SDS011;3894;49.700;10.770;2022-10-13T12:08:56;147.30;;;140.02;;
7703;SDS011;3894;49.700;10.770;2022-10-13T12:11:25;158.55;;;150.38;;
7703;SDS011;3894;49.700;10.770;2022-10-13T12:16:19;136.80;;;129.75;;
7703;SDS011;3894;49.700;10.770;2022-10-13T12:18:46;159.70;;;151.85;;
7703;SDS011;3894;49.700;10.770;2022-10-13T12:21:18;139.70;;;132.63;;
7703;SDS011;3894;49.700;10.770;2022-10-13T12:23:47;160.00;;;151.95;;
7703;SDS011;3894;49.700;10.770;2022-10-13T12:26:15;140.65;;;133.55;;
7703;SDS011;3894;49.700;10.770;2022-10-13T12:31:43;111.80;;;105.80;;
7703;SDS011;3894;49.700;10.770;2022-10-13T12:34:52;117.55;;;111.57;;
7703;SDS011;3894;49.700;10.770;2022-10-13T12:37:00;103.13;;;97.15;;
7703;SDS011;3894;49.700;10.770;2022-10-13T12:39:29;110.45;;;104.40;;
7703;SDS011;3894;49.700;10.770;2022-10-13T12:41:56;104.15;;;98.07;;
7703;SDS011;3894;49.700;10.770;2022-10-13T12:44:25;80.57;;;75.50;;
7703;SDS011;3894;49.700;10.770;2022-10-13T12:46:53;102.55;;;96.70;;
7703;SDS011;3894;49.700;10.770;2022-10-13T12:49:23;85.30;;;80.35;;
7703;SDS011;3894;49.700;10.770;2022-10-13T12:54:34;83.35;;;78.32;;
7703;SDS011;3894;49.700;10.770;2022-10-13T12:57:21;92.22;;;87.00;;
7703;SDS011;3894;49.700;10.770;2022-10-13T13:00:42;56.58;;;52.33;;
7703;SDS011;3894;49.700;10.770;2022-10-13T13:02:54;53.63;;;49.53;;
7703;SDS011;3894;49.700;10.770;2022-10-13T13:05:31;50.28;;;46.60;;
7703;SDS011;3894;49.700;10.770;2022-10-13T13:07:59;53.50;;;49.40;;
7703;SDS011;3894;49.700;10.770;2022-10-13T13:10:25;64.03;;;59.55;;
7703;SDS011;3894;49.700;10.770;2022-10-13T13:12:52;61.20;;;57.22;;
7703;SDS011;3894;49.700;10.770;2022-10-13T13:17:50;78.50;;;73.25;;
7703;SDS011;3894;49.700;10.770;2022-10-13T13:20:29;69.80;;;65.45;;
7703;SDS011;3894;49.700;10.770;2022-10-13T13:22:57;68.18;;;63.97;;
7703;SDS011;3894;49.700;10.770;2022-10-13T13:25:23;62.67;;;58.45;;
7703;SDS011;3894;49.700;10.770;2022-10-13T13:27:50;87.00;;;81.88;;
7703;SDS011;3894;49.700;10.770;2022-10-13T13:30:17;102.70;;;96.95;;
7703;SDS011;3894;49.700;10.770;2022-10-13T13:32:45;96.32;;;90.97;;
7703;SDS011;3894;49.700;10.770;2022-10-13T13:35:10;107.43;;;101.55;;
7703;SDS011;3894;49.700;10.770;2022-10-13T13:37:37;107.53;;;101.63;;
7703;SDS011;3894;49.700;10.770;2022-10-13T13:40:06;113.10;;;107.15;;
7703;SDS011;3894;49.700;10.770;2022-10-13T13:42:38;77.47;;;72.38;;
7703;SDS011;3894;49.700;10.770;2022-10-13T13:45:04;119.57;;;113.32;;
7703;SDS011;3894;49.700;10.770;2022-10-13T13:47:30;97.70;;;92.43;;
7703;SDS011;3894;49.700;10.770;2022-10-13T13:49:55;80.13;;;75.47;;
7703;SDS011;3894;49.700;10.770;2022-10-13T13:52:21;99.18;;;93.65;;
7703;SDS011;3894;49.700;10.770;2022-10-13T13:54:48;84.68;;;80.00;;
7703;SDS011;3894;49.700;10.770;2022-10-13T13:57:14;84.32;;;79.70;;
7703;SDS011;3894;49.700;10.770;2022-10-13T13:59:41;87.10;;;82.35;;
7703;SDS011;3894;49.700;10.770;2022-10-13T14:02:12;98.10;;;92.93;;
7703;SDS011;3894;49.700;10.770;2022-10-13T14:04:39;93.43;;;88.32;;
7703;SDS011;3894;49.700;10.770;2022-10-13T14:07:05;88.15;;;83.45;;
7703;SDS011;3894;49.700;10.770;2022-10-13T14:09:31;89.72;;;85.05;;
7703;SDS011;3894;49.700;10.770;2022-10-13T14:11:56;110.85;;;105.47;;
7703;SDS011;3894;49.700;10.770;2022-10-13T14:14:22;101.78;;;96.65;;
7703;SDS011;3894;49.700;10.770;2022-10-13T14:16:48;108.45;;;103.13;;
7703;SDS011;3894;49.700;10.770;2022-10-13T14:19:14;97.05;;;92.03;;
7703;SDS011;3894;49.700;10.770;2022-10-13T14:21:40;93.95;;;89.20;;
7703;SDS011;3894;49.700;10.770;2022-10-13T14:24:05;91.13;;;86.40;;
7703;SDS011;3894;49.700;10.770;2022-10-13T14:26:31;93.28;;;88.50;;
7703;SDS011;3894;49.700;10.770;2022-10-13T14:28:57;138.63;;;131.93;;
7703;SDS011;3894;49.700;10.770;2022-10-13T14:31:22;136.13;;;129.35;;
7703;SDS011;3894;49.700;10.770;2022-10-13T14:33:48;134.35;;;127.70;;
7703;SDS011;3894;49.700;10.770;2022-10-13T14:36:14;150.90;;;143.85;;
7703;SDS011;3894;49.700;10.770;2022-10-13T14:38:40;138.48;;;131.98;;
7703;SDS011;3894;49.700;10.770;2022-10-13T14:41:05;153.38;;;146.45;;
7703;SDS011;3894;49.700;10.770;2022-10-13T14:43:31;161.15;;;153.77;;
7703;SDS011;3894;49.700;10.770;2022-10-13T14:46:01;154.88;;;147.77;;
7703;SDS011;3894;49.700;10.770;2022-10-13T14:48:31;164.57;;;157.27;;
7703;SDS011;3894;49.700;10.770;2022-10-13T14:50:57;168.13;;;160.88;;
7703;SDS011;3894;49.700;10.770;2022-10-13T14:53:23;171.98;;;164.45;;
7703;SDS011;3894;49.700;10.770;2022-10-13T14:55:50;164.20;;;156.95;;
7703;SDS011;3894;49.700;10.770;2022-10-13T14:58:16;150.52;;;143.77;;
7703;SDS011;3894;49.700;10.770;2022-10-13T15:00:42;159.02;;;151.93;;
7703;SDS011;3894;49.700;10.770;2022-10-13T15:03:07;154.48;;;147.27;;
7703;SDS011;3894;49.700;10.770;2022-10-13T15:05:34;153.82;;;146.82;;
7703;SDS011;3894;49.700;10.770;2022-10-13T15:07:59;171.32;;;163.70;;
7703;SDS011;3894;49.700;10.770;2022-10-13T15:10:25;178.98;;;171.20;;
7703;SDS011;3894;49.700;10.770;2022-10-13T15:15:18;160.75;;;153.73;;
7703;SDS011;3894;49.700;10.770;2022-10-13T15:17:44;170.77;;;163.38;;
7703;SDS011;3894;49.700;10.770;2022-10-13T15:20:10;175.77;;;168.32;;
7703;SDS011;3894;49.700;10.770;2022-10-13T15:22:36;180.77;;;172.90;;
7703;SDS011;3894;49.700;10.770;2022-10-13T15:25:01;178.30;;;170.95;;
7703;SDS011;3894;49.700;10.770;2022-10-13T15:27:31;173.52;;;165.95;;
7703;SDS011;3894;49.700;10.770;2022-10-13T15:29:57;179.18;;;171.20;;
7703;SDS011;3894;49.700;10.770;2022-10-13T15:32:22;185.02;;;177.32;;
7703;SDS011;3894;49.700;10.770;2022-10-13T15:34:48;182.07;;;174.05;;
7703;SDS011;3894;49.700;10.770;2022-10-13T15:37:14;173.80;;;165.90;;
7703;SDS011;3894;49.700;10.770;2022-10-13T15:39:39;181.45;;;173.48;;
7703;SDS011;3894;49.700;10.770;2022-10-13T15:42:05;182.40;;;173.52;;
7703;SDS011;3894;49.700;10.770;2022-10-13T15:44:30;178.82;;;170.30;;
7703;SDS011;3894;49.700;10.770;2022-10-13T15:46:56;165.85;;;157.85;;
7703;SDS011;3894;49.700;10.770;2022-10-13T15:49:22;179.05;;;170.90;;
7703;SDS011;3894;49.700;10.770;2022-10-13T15:51:49;167.15;;;159.52;;
7703;SDS011;3894;49.700;10.770;2022-10-13T15:54:15;169.43;;;161.65;;
7703;SDS011;3894;49.700;10.770;2022-10-13T15:56:41;164.25;;;157.18;;
7703;SDS011;3894;49.700;10.770;2022-10-13T15:59:07;153.75;;;146.90;;
7703;SDS011;3894;49.700;10.770;2022-10-13T16:01:33;126.50;;;120.45;;
7703;SDS011;3894;49.700;10.770;2022-10-13T16:03:58;152.98;;;146.18;;
7703;SDS011;3894;49.700;10.770;2022-10-13T16:06:24;156.57;;;149.38;;
7703;SDS011;3894;49.700;10.770;2022-10-13T16:08:51;170.13;;;162.60;;
7703;SDS011;3894;49.700;10.770;2022-10-13T16:11:18;165.55;;;158.35;;
7703;SDS011;3894;49.700;10.770;2022-10-13T16:13:45;147.65;;;141.15;;
7703;SDS011;3894;49.700;10.770;2022-10-13T16:16:13;139.43;;;132.60;;
7703;SDS011;3894;49.700;10.770;2022-10-13T16:18:39;159.45;;;151.48;;
7703;SDS011;3894;49.700;10.770;2022-10-13T16:21:09;145.25;;;138.52;;
7703;SDS011;3894;49.700;10.770;2022-10-13T16:23:36;140.88;;;134.25;;
7703;SDS011;3894;49.700;10.770;2022-10-13T16:26:02;152.93;;;146.02;;